Regina International Airport
CYQR : now visible

Airfield :











YOU CAN JOIN US ON...

 
LOGIN :

Register | Disclaimer

   EN    FR    IT 

 









Legend :    VFR   Marginal VFR   IFR   Intensive IFR   Very Intensive IFR
Visi :
Ceiling :
>= 8 km
>= 3000ft
5 to 8 km
1000 to 3000 ft
1500m to 5 km
500 to 1000 ft
800 to 1500m
200 to 500 ft
< 800m
< 200 ft
Symbols :   Thunderstorms  Fog  Heavy snow  Heavy precipitations  Wind > 20 kt






- Airport Elevation : 1894 ft
- IATA code : YQR


CYQR - Regina International

CURRENT METAR :
  • 230700Z 26010KT 1 1/2SM -SN OVC024 M06/M07 A2981 RMK SC8 SLP135

EXPIRED METARs :
  • 230647Z 26010KT 2SM -SN OVC027 M06/M07 A2982 RMK SC8 SLP136
  • 230600Z 26012KT 3SM -SN OVC028 M06/M07 A2982 RMK SC8 SLP138
  • 230500Z 23014KT 4SM -SN OVC040 M06/M07 A2983 RMK SC8 SLP140

TAF AMD TAF CYQR
Valid from the 23 at 07:00 until the 24 at 06:00 UTC


230705Z 2307/2406 25015KT 4SM -SN SCT020 OVC040
TEMPO 2307/2309 1SM -SHSN SCT008 OVC020
FM230900 31015G25KT P6SM SCT020 BKN040
TEMPO 2309/2316 2SM -SN SCT008 OVC020
PROB30 2312/2316 1SM -SHSN VV008
FM231600 33015KT P6SM SCT015 BKN030
TEMPO 2316/2318 5SM -SN BKN015 BKN030 RMK NXT FCST BY 231200Z
CZWG FIR / North America



MET'MAP, your aeronautical weather chart ! - Copyright ORBIFLY December 2007 - Disclaimer

ORBIFLY MET'MAP TEAM :

Programming & Development : Alexandra Zaïnal
Concept & original design : Baudouin d'Aumeries
Assistance for programming : Marc-Olivier Méhu
Technical & hardware support : Manuel Goepfert

Contact : metmap@orbifly.com




SOURCES & CREDITS :

   NOAA       Earth
Advisory